Strona główna
METAR-TAF:

METAR-TAF

Lotnisko :

Port lotniczy Ranong

Ranong, Tajlandia

Szerokość geograficzna: 09-59N, Długość geograficzna: 098-37E, wysokość: 7 m

Aktualna obserwacja pogody

Raport powstał 30 minut temu, godzina 03:00 UTC
Wiatr 5 kt z kierunków zmiennych w porywach dochodzący do 15 kt
Temperatura 29°C
Wilgotność 62%
Ciśnienie 1013 hPa
Widzialność 10 km lub więcej
Brak chmur poniżej 1500 m i brak chmur cumulonimbus

METAR: VTSR 100300Z VRB05G15KT CAVOK 29/21 Q1013 NOSIG

czas: 10:30 (03:30 UTC)

Prognoza

Raport powstał 4 godziny i 30 minut temu, godzina 23:00 UTC
Prognoza ważna od 10 godzina 00 UTC do 10 godzina 24 UTC
Wiatr 8 kt od wschód
Widzialność 10 km lub więcej
Mało chmury na wysokości 3000 ft
Przejściowo
od 10 godzina 02 UTC do 10 godzina 08 UTC
Wiatr 10 kt od wschód w porywach dochodzący do 30 kt

TAF: VTSR 092300Z 1000/1024 08008KT 9999 FEW030 TEMPO 1002/1008 09010G30KT

Obserwacja i prognoza pogody dla ponad 4000 lotnisk (raport METAR i TAF).

Dostępne stacje oznaczono żółtymi i czerwonymi punktami na mapie.

Najedź kursorem aby zobaczyć nazwę stacji.

Kliknij aby zobaczyć obserwacje i prognozy pogody.

Aby zmienić mapę: kliknij na zielony przycisk z czarnym krzyżykiem, aby powiększyć; na zielony przycisk z myślnikiem, aby pomniejszyć; na zielone strzałki, aby przejść do map sąsiednich.


METAR-TAF: